Japan Airlines Virtual Airport Information Service

Paris Charles de Gaulle Airport

ICAO: LFPG Country: France
Latitude: 49.0125 Longitude: 2.55575
Latest Arrival : AFR499 (TNCM-LFPG) Latest Departure : AFR402 (LFPG-SCEL)


WX CaptureLIVE
Data provided by noaa.gov | Fetched at 16:43:28

METAR : LFPG 291600Z 24007KT 9999 FEW013 BKN036 17/15 Q1018 NOSIG

TAF : LFPG 291550Z 2915/3018 24005KT 9999 BKN030 TX19/3015Z TN14/3006Z PROB40 TEMPO 3002/3005 3000 -RADZ BKN008


Runway Data for LFPG
Data provided by openaviationdata.com

Runway ID Mag Var Hdg Length Elevation Surface ILS Freq ILS Id ILS Slope
08L -2 87° 13944 ft 392 ft Macadam 108.7 GLE 3
08R -2 87° 8832 ft 392 ft Concrete 108.55 DSE 3
09L -2 87° 8840 ft 392 ft Tarmac 109.35 PNE 3
09R -2 87° 13780 ft 392 ft Macadam 110.1 CGE 3
26L -2 267° 8832 ft 392 ft Concrete 108.35 DSU 3
26R -2 267° 13944 ft 392 ft Macadam 109.1 GAU 3
27L -2 267° 13780 ft 392 ft Macadam 110.7 CGW 3
27R -2 267° 8840 ft 392 ft Tarmac 110.35 PNW 3

Paris Charles de Gaulle Airport, France
Use only for reference purposes



Not for navigational purposes.